createdAt,value
2023-03-03T00:00:33.298Z,43.50
2023-03-03T00:03:19.347Z,46.15
2023-03-03T00:05:46.304Z,45.72
2023-03-03T00:08:13.424Z,44.83
2023-03-03T00:10:40.197Z,43.65
2023-03-03T00:13:16.424Z,45.72
2023-03-03T00:15:43.400Z,44.60
2023-03-03T00:18:26.981Z,49.42
2023-03-03T00:20:55.091Z,48.10
2023-03-03T00:23:32.255Z,50.58
2023-03-03T00:25:59.508Z,50.70
2023-03-03T00:28:41.607Z,49.15
2023-03-03T00:31:33.517Z,52.28
2023-03-03T00:34:24.809Z,54.38
2023-03-03T00:36:56.246Z,56.45
2023-03-03T00:39:23.322Z,55.58
2023-03-03T00:41:50.168Z,54.95
2023-03-03T00:44:39.746Z,58.67
2023-03-03T00:47:30.743Z,55.72
2023-03-03T00:50:07.571Z,56.22
2023-03-03T00:52:43.462Z,57.35
2023-03-03T00:55:10.600Z,58.08
2023-03-03T00:57:37.333Z,58.05
2023-03-03T01:00:04.971Z,57.90
2023-03-03T01:02:31.781Z,58.50
2023-03-03T01:04:58.847Z,55.13
2023-03-03T01:07:25.818Z,58.05
2023-03-03T01:09:52.864Z,56.92
2023-03-03T01:12:19.624Z,59.10
2023-03-03T01:14:49.323Z,55.75
2023-03-03T01:17:16.098Z,54.58
2023-03-03T01:19:43.157Z,57.17
2023-03-03T01:22:09.937Z,55.40
2023-03-03T01:24:37.004Z,55.13
2023-03-03T01:27:03.797Z,56.50
2023-03-03T01:29:30.945Z,55.65
2023-03-03T01:31:57.791Z,55.92
2023-03-03T01:34:25.156Z,57.35
2023-03-03T01:36:51.904Z,53.63
2023-03-03T01:39:18.964Z,55.05
2023-03-03T01:41:45.812Z,58.10
2023-03-03T01:44:15.865Z,60.13
2023-03-03T01:47:04.656Z,56.08
2023-03-03T01:49:43.222Z,57.45
2023-03-03T01:52:15.527Z,58.42
2023-03-03T01:54:44.991Z,55.92
2023-03-03T01:57:14.682Z,57.97
2023-03-03T01:59:44.526Z,56.20
2023-03-03T02:02:11.317Z,56.80
2023-03-03T02:04:38.478Z,55.20
2023-03-03T02:07:11.166Z,57.00
2023-03-03T02:10:00.918Z,56.00
2023-03-03T02:12:36.198Z,56.25
2023-03-03T02:15:16.120Z,58.92
2023-03-03T02:17:42.834Z,56.85
2023-03-03T02:20:19.102Z,56.20
2023-03-03T02:23:30.398Z,56.17
2023-03-03T02:25:59.021Z,55.40
2023-03-03T02:28:30.365Z,53.80
2023-03-03T02:30:58.462Z,55.60
2023-03-03T02:33:25.657Z,55.88
2023-03-03T02:35:52.790Z,56.95
2023-03-03T02:38:31.204Z,53.10
2023-03-03T02:41:17.009Z,57.03
2023-03-03T02:44:05.649Z,54.67
2023-03-03T02:46:40.043Z,54.50
2023-03-03T02:49:07.588Z,56.85
2023-03-03T02:51:34.993Z,55.85
2023-03-03T02:54:01.998Z,54.03
2023-03-03T02:56:29.171Z,54.53
2023-03-03T02:58:55.983Z,52.95
2023-03-03T03:01:23.176Z,56.65
2023-03-03T03:03:50.081Z,53.42
2023-03-03T03:06:17.232Z,54.30
2023-03-03T03:08:43.967Z,55.42
2023-03-03T03:11:11.089Z,51.70
2023-03-03T03:13:37.798Z,52.30
2023-03-03T03:16:05.296Z,55.55
2023-03-03T03:18:32.139Z,51.70
2023-03-03T03:21:06.632Z,51.72
2023-03-03T03:23:34.563Z,50.53
2023-03-03T03:26:01.690Z,48.78
2023-03-03T03:28:28.454Z,53.53
2023-03-03T03:30:55.600Z,53.33
2023-03-03T03:33:22.465Z,52.00
2023-03-03T03:35:50.496Z,53.72
2023-03-03T03:38:17.459Z,51.58
2023-03-03T03:40:44.559Z,53.17
2023-03-03T03:43:11.384Z,52.78
2023-03-03T03:45:38.500Z,55.03
2023-03-03T03:48:05.424Z,53.50
2023-03-03T03:50:32.437Z,54.38
2023-03-03T03:52:59.202Z,54.97
2023-03-03T03:55:26.239Z,55.50
2023-03-03T03:57:52.994Z,55.22
2023-03-03T04:00:20.271Z,56.13
2023-03-03T04:02:47.174Z,53.35
2023-03-03T04:05:14.391Z,55.35
2023-03-03T04:07:41.205Z,59.38
2023-03-03T04:10:08.973Z,57.83
2023-03-03T04:12:38.645Z,56.05
2023-03-03T04:15:10.322Z,55.28
2023-03-03T04:17:37.099Z,57.10
2023-03-03T04:20:04.772Z,58.83
2023-03-03T04:22:36.006Z,59.53
2023-03-03T04:25:05.283Z,58.67
2023-03-03T04:27:33.239Z,61.40
2023-03-03T04:30:00.339Z,61.67
2023-03-03T04:32:27.129Z,61.17
2023-03-03T04:35:05.639Z,62.22
2023-03-03T04:37:34.390Z,61.08
2023-03-03T04:40:01.431Z,60.90
2023-03-03T04:42:28.925Z,63.03
2023-03-03T04:44:55.991Z,60.83
2023-03-03T04:47:22.727Z,63.13
2023-03-03T04:49:49.820Z,62.40
2023-03-03T04:52:16.580Z,61.22
2023-03-03T04:54:43.721Z,56.05
2023-03-03T04:57:10.489Z,62.60
2023-03-03T04:59:37.569Z,59.38
2023-03-03T05:02:05.402Z,59.05
2023-03-03T05:04:33.128Z,57.97
2023-03-03T05:06:59.916Z,57.50
2023-03-03T05:09:27.014Z,56.55
2023-03-03T05:11:54.157Z,57.80
2023-03-03T05:14:21.251Z,55.97
2023-03-03T05:16:48.014Z,56.92
2023-03-03T05:19:15.120Z,54.28
2023-03-03T05:21:42.616Z,58.63
2023-03-03T05:24:10.807Z,57.42
2023-03-03T05:26:37.701Z,54.72
2023-03-03T05:29:04.937Z,57.80
2023-03-03T05:31:31.750Z,53.35
2023-03-03T05:33:58.899Z,56.00
2023-03-03T05:36:25.748Z,57.05
2023-03-03T05:38:52.924Z,52.38
2023-03-03T05:41:19.740Z,55.03
2023-03-03T05:43:46.808Z,55.53
2023-03-03T05:46:13.644Z,54.00
2023-03-03T05:48:40.830Z,55.88
2023-03-03T05:51:07.612Z,52.40
2023-03-03T05:53:34.735Z,54.13
2023-03-03T05:56:01.462Z,52.63
2023-03-03T05:58:28.641Z,54.17
2023-03-03T06:00:55.382Z,50.95
2023-03-03T06:03:22.610Z,51.92
2023-03-03T06:05:49.373Z,52.97
2023-03-03T06:08:16.508Z,53.90
2023-03-03T06:10:43.280Z,54.03
2023-03-03T06:13:10.344Z,53.92
2023-03-03T06:15:37.216Z,53.22
2023-03-03T06:18:04.388Z,55.67
2023-03-03T06:20:31.728Z,54.80
2023-03-03T06:22:58.832Z,56.05
2023-03-03T06:25:25.563Z,57.40
2023-03-03T06:27:52.701Z,56.90
2023-03-03T06:30:19.546Z,61.30
2023-03-03T06:32:46.901Z,57.65
2023-03-03T06:35:13.811Z,60.55
2023-03-03T06:37:40.883Z,56.88
2023-03-03T06:40:08.226Z,58.88
2023-03-03T06:42:35.302Z,57.42
2023-03-03T06:45:02.024Z,58.42
2023-03-03T06:47:29.070Z,59.03
2023-03-03T06:49:55.828Z,60.85
2023-03-03T06:52:24.569Z,61.08
2023-03-03T06:54:53.818Z,60.00
2023-03-03T06:57:27.953Z,59.05
2023-03-03T06:59:57.144Z,58.10
2023-03-03T07:02:24.248Z,59.67
2023-03-03T07:04:51.054Z,56.45
2023-03-03T07:07:25.534Z,60.00
2023-03-03T07:09:54.273Z,58.20
2023-03-03T07:12:27.266Z,58.47
2023-03-03T07:15:22.368Z,55.95
2023-03-03T07:17:51.334Z,56.17
2023-03-03T07:20:19.605Z,53.95
2023-03-03T07:22:46.738Z,56.75
2023-03-03T07:25:30.194Z,56.20
2023-03-03T07:28:04.505Z,57.17
2023-03-03T07:30:31.340Z,55.92
2023-03-03T07:32:58.577Z,53.42
2023-03-03T07:35:44.361Z,51.80
2023-03-03T07:38:20.638Z,50.35
2023-03-03T07:40:55.352Z,51.67
2023-03-03T07:43:48.609Z,51.45
2023-03-03T07:46:29.335Z,50.33
2023-03-03T07:48:57.696Z,47.90
2023-03-03T07:51:29.233Z,49.78
2023-03-03T07:54:31.689Z,49.45
2023-03-03T07:57:28.157Z,47.83
2023-03-03T08:00:17.132Z,46.35
2023-03-03T08:02:47.702Z,48.85
2023-03-03T08:05:31.505Z,46.63
2023-03-03T08:08:10.690Z,44.67
2023-03-03T08:10:43.512Z,45.45
2023-03-03T08:13:17.667Z,46.53
2023-03-03T08:15:46.071Z,49.13
2023-03-03T08:18:24.354Z,45.40
2023-03-03T08:20:53.340Z,45.13
2023-03-03T08:23:20.367Z,45.45
2023-03-03T08:25:47.834Z,45.65
2023-03-03T08:28:14.680Z,47.28
2023-03-03T08:30:42.105Z,45.60
2023-03-03T08:33:08.891Z,46.70
2023-03-03T08:35:36.096Z,46.33
2023-03-03T08:38:03.053Z,47.40
2023-03-03T08:40:31.143Z,49.03
2023-03-03T08:42:58.274Z,47.00
2023-03-03T08:45:26.068Z,48.60
2023-03-03T08:47:52.910Z,48.63
2023-03-03T08:50:38.756Z,47.55
2023-03-03T08:53:05.939Z,45.35
2023-03-03T08:55:32.733Z,47.05
2023-03-03T08:57:59.830Z,46.15
2023-03-03T09:00:26.691Z,47.80
2023-03-03T09:02:53.941Z,45.10
2023-03-03T09:05:20.924Z,44.38
2023-03-03T09:07:48.331Z,42.78
2023-03-03T09:10:17.182Z,43.88
2023-03-03T09:12:48.679Z,41.47
2023-03-03T09:15:26.896Z,41.00
2023-03-03T09:17:54.015Z,42.67
2023-03-03T09:20:29.782Z,39.22
2023-03-03T09:22:56.904Z,41.13
2023-03-03T09:25:30.305Z,39.80
2023-03-03T09:27:57.443Z,39.13
2023-03-03T09:30:29.820Z,40.58
2023-03-03T09:32:57.350Z,38.75
2023-03-03T09:35:36.118Z,39.17
2023-03-03T09:38:30.649Z,38.38
2023-03-03T09:41:11.217Z,38.47
2023-03-03T09:44:01.171Z,36.97
2023-03-03T09:46:52.367Z,38.70
2023-03-03T09:49:33.181Z,38.05
2023-03-03T09:52:31.042Z,39.80
2023-03-03T09:55:08.069Z,37.65
2023-03-03T09:58:10.860Z,39.38
2023-03-03T10:01:13.604Z,35.38
2023-03-03T10:03:55.627Z,36.58
2023-03-03T10:06:29.297Z,38.70
2023-03-03T10:08:56.025Z,36.22
2023-03-03T10:11:42.934Z,39.38
2023-03-03T10:14:35.249Z,37.92
2023-03-03T10:17:14.508Z,38.28
2023-03-03T10:19:46.403Z,37.55
2023-03-03T10:22:35.036Z,37.92
2023-03-03T10:25:24.904Z,36.55
2023-03-03T10:28:16.961Z,37.30
2023-03-03T10:31:06.188Z,37.80
2023-03-03T10:34:12.085Z,35.92
2023-03-03T10:36:54.121Z,36.53
2023-03-03T10:39:48.815Z,36.42
2023-03-03T10:42:32.105Z,34.92
2023-03-03T10:45:02.264Z,35.25
2023-03-03T10:48:09.329Z,34.92
2023-03-03T10:50:45.576Z,35.40
2023-03-03T10:53:21.321Z,33.97
2023-03-03T10:55:59.150Z,33.30
2023-03-03T10:58:32.691Z,32.97
2023-03-03T11:01:03.666Z,35.40
2023-03-03T11:03:41.062Z,33.08
2023-03-03T11:06:34.074Z,33.88
2023-03-03T11:09:19.479Z,32.38
2023-03-03T11:14:19.417Z,32.97
2023-03-03T11:17:24.836Z,33.25
2023-03-03T11:20:05.050Z,31.85
2023-03-03T11:22:46.752Z,32.60
2023-03-03T11:25:35.429Z,31.65
2023-03-03T11:28:02.493Z,33.92
2023-03-03T11:30:34.420Z,33.30
2023-03-03T11:33:34.082Z,34.03
2023-03-03T11:36:27.690Z,30.85
2023-03-03T11:38:59.962Z,33.33
2023-03-03T11:41:46.055Z,32.45
2023-03-03T11:44:19.071Z,31.58
2023-03-03T11:47:03.999Z,32.35
2023-03-03T11:49:50.045Z,31.38
2023-03-03T11:55:02.624Z,30.83
2023-03-03T11:57:37.039Z,33.40
2023-03-03T12:00:16.534Z,34.42
2023-03-03T12:02:52.604Z,32.05
2023-03-03T12:05:28.994Z,31.95
2023-03-03T12:08:19.320Z,30.73
2023-03-03T12:10:49.266Z,34.00
2023-03-03T12:13:30.315Z,31.90
2023-03-03T12:16:04.637Z,30.60
2023-03-03T12:18:53.963Z,31.15
2023-03-03T12:21:36.211Z,31.20
2023-03-03T12:24:08.467Z,30.35
2023-03-03T12:26:45.009Z,29.23
2023-03-03T12:29:12.146Z,28.20
2023-03-03T12:32:00.381Z,28.77
2023-03-03T12:34:41.417Z,28.33
2023-03-03T12:37:23.234Z,28.90
2023-03-03T12:39:52.895Z,26.90
2023-03-03T12:42:42.362Z,26.48
2023-03-03T12:45:24.506Z,28.20
2023-03-03T12:47:57.981Z,26.50
2023-03-03T12:50:34.590Z,27.02
2023-03-03T12:53:09.900Z,27.85
2023-03-03T12:55:52.104Z,25.30
2023-03-03T12:58:31.341Z,26.38
2023-03-03T13:01:07.176Z,26.20
2023-03-03T13:03:58.301Z,26.27
2023-03-03T13:06:51.870Z,25.77
2023-03-03T13:09:39.279Z,26.50
2023-03-03T13:12:18.192Z,26.25
2023-03-03T13:14:54.591Z,25.58
2023-03-03T13:17:25.094Z,26.23
2023-03-03T13:20:03.183Z,25.88
2023-03-03T13:22:39.060Z,26.67
2023-03-03T13:25:09.531Z,25.75
2023-03-03T13:27:39.852Z,27.17
2023-03-03T13:30:22.929Z,27.15
2023-03-03T13:33:31.259Z,25.80
2023-03-03T13:36:01.238Z,25.63
2023-03-03T13:38:37.433Z,25.52
2023-03-03T13:41:29.745Z,23.35
2023-03-03T13:44:01.533Z,25.75
2023-03-03T13:46:43.416Z,23.60
2023-03-03T13:49:28.675Z,23.27
2023-03-03T13:52:06.525Z,23.92
2023-03-03T13:54:42.832Z,22.42
2023-03-03T13:57:18.983Z,22.90
2023-03-03T13:59:51.704Z,24.85
2023-03-03T14:02:46.095Z,23.13
2023-03-03T14:05:44.730Z,22.55
2023-03-03T14:08:18.046Z,23.88
2023-03-03T14:11:10.747Z,20.15
2023-03-03T14:13:49.515Z,21.85
2023-03-03T14:16:20.890Z,21.83
2023-03-03T14:18:57.175Z,21.92
2023-03-03T14:21:28.367Z,22.85
2023-03-03T14:24:16.692Z,21.48
2023-03-03T14:26:54.185Z,21.27
2023-03-03T14:29:27.527Z,20.42
2023-03-03T14:32:01.749Z,21.40
2023-03-03T14:34:39.764Z,19.80
2023-03-03T14:37:27.486Z,20.30
2023-03-03T14:40:22.544Z,20.75
2023-03-03T14:42:52.393Z,19.05
2023-03-03T14:45:29.579Z,21.33
2023-03-03T14:47:56.963Z,20.33
2023-03-03T14:50:30.876Z,20.90
2023-03-03T14:53:18.866Z,20.98
2023-03-03T14:55:47.807Z,20.50
2023-03-03T14:58:39.456Z,20.83
2023-03-03T15:01:35.244Z,20.38
2023-03-03T15:04:10.614Z,20.35
2023-03-03T15:06:37.879Z,19.92
2023-03-03T15:09:45.586Z,20.23
2023-03-03T15:12:26.737Z,21.58
2023-03-03T15:15:06.269Z,21.48
2023-03-03T15:17:37.346Z,23.05
2023-03-03T15:20:32.212Z,21.85
2023-03-03T15:23:09.183Z,22.03
2023-03-03T15:25:55.989Z,22.88
2023-03-03T15:28:52.740Z,20.48
2023-03-03T15:31:32.905Z,22.20
2023-03-03T15:34:13.597Z,20.80
2023-03-03T15:37:31.067Z,22.50
2023-03-03T15:40:04.146Z,22.38
2023-03-03T15:42:42.929Z,22.55
2023-03-03T15:45:25.417Z,22.67
2023-03-03T15:48:10.940Z,21.63
2023-03-03T15:53:05.827Z,21.35
2023-03-03T15:55:44.773Z,22.15
2023-03-03T15:58:30.282Z,21.65
2023-03-03T16:03:36.456Z,20.95
2023-03-03T16:06:06.863Z,22.13
2023-03-03T16:09:02.752Z,22.02
2023-03-03T16:14:16.341Z,21.80
2023-03-03T16:17:14.633Z,22.30
2023-03-03T16:19:49.672Z,21.38
2023-03-03T16:25:07.251Z,22.00
2023-03-03T16:27:48.510Z,26.08
2023-03-03T16:30:28.438Z,25.33
2023-03-03T16:33:04.600Z,27.52
2023-03-03T16:35:39.659Z,29.42
2023-03-03T16:38:11.501Z,31.85
2023-03-03T16:40:49.771Z,30.77
2023-03-03T16:43:16.895Z,33.40
2023-03-03T16:45:43.725Z,33.58
2023-03-03T16:48:20.924Z,33.50
2023-03-03T16:50:57.398Z,35.88
2023-03-03T16:53:39.809Z,34.47
2023-03-03T16:56:09.391Z,34.53
2023-03-03T16:58:55.261Z,31.52
2023-03-03T17:01:28.821Z,31.05
2023-03-03T17:04:02.404Z,32.17
2023-03-03T17:06:31.341Z,32.05
2023-03-03T17:09:31.800Z,31.13
2023-03-03T17:12:11.468Z,30.23
2023-03-03T17:14:47.791Z,32.53
2023-03-03T17:17:36.844Z,32.35
2023-03-03T17:20:16.339Z,30.25
2023-03-03T17:23:03.286Z,31.08
2023-03-03T17:25:43.059Z,28.70
2023-03-03T17:28:19.085Z,30.95
2023-03-03T17:30:53.418Z,28.63
2023-03-03T17:33:23.235Z,30.48
2023-03-03T17:36:16.307Z,28.60
2023-03-03T17:39:06.334Z,29.02
2023-03-03T17:41:40.836Z,28.42
2023-03-03T17:44:10.598Z,29.30
2023-03-03T17:47:08.322Z,28.67
2023-03-03T17:50:13.996Z,28.55
2023-03-03T17:52:44.020Z,27.30
2023-03-03T17:55:23.709Z,27.85
2023-03-03T17:58:03.022Z,27.35
2023-03-03T18:01:00.504Z,26.80
2023-03-03T18:03:52.195Z,27.67
2023-03-03T18:06:27.534Z,26.67
2023-03-03T18:09:23.964Z,25.88
2023-03-03T18:14:36.426Z,26.23
2023-03-03T18:17:31.038Z,28.30
2023-03-03T18:20:10.310Z,28.30
2023-03-03T18:22:45.982Z,27.42
2023-03-03T18:25:14.353Z,26.15
2023-03-03T18:27:42.635Z,26.00
2023-03-03T18:30:20.398Z,26.73
2023-03-03T18:32:56.241Z,26.20
2023-03-03T18:35:38.725Z,26.02
2023-03-03T18:38:17.926Z,24.23
2023-03-03T18:41:10.011Z,27.25
2023-03-03T18:43:45.801Z,26.77
2023-03-03T18:46:24.716Z,25.80
2023-03-03T18:49:00.776Z,24.60
2023-03-03T18:51:40.125Z,25.98
2023-03-03T18:54:13.650Z,27.05
2023-03-03T18:56:55.230Z,24.90
2023-03-03T18:59:34.218Z,24.38
2023-03-03T19:02:13.380Z,24.33
2023-03-03T19:04:44.892Z,25.60
2023-03-03T19:07:28.490Z,24.92
2023-03-03T19:10:01.457Z,25.58
2023-03-03T19:12:51.637Z,23.92
2023-03-03T19:15:36.664Z,23.65
2023-03-03T19:18:15.058Z,23.67
2023-03-03T19:20:46.014Z,24.00
2023-03-03T19:23:17.741Z,23.05
2023-03-03T19:25:44.581Z,22.80
2023-03-03T19:28:14.755Z,22.05
2023-03-03T19:31:17.139Z,24.60
2023-03-03T19:33:57.113Z,23.15
2023-03-03T19:36:49.017Z,23.45
2023-03-03T19:39:39.155Z,22.20
2023-03-03T19:42:14.204Z,21.98
2023-03-03T19:45:11.757Z,22.13
2023-03-03T19:47:59.891Z,21.23
2023-03-03T19:51:05.486Z,23.40
2023-03-03T19:53:39.517Z,21.02
2023-03-03T19:56:10.896Z,23.65
2023-03-03T19:58:50.688Z,22.23
2023-03-03T20:01:38.073Z,22.73
2023-03-03T20:04:26.224Z,21.65
2023-03-03T20:06:57.900Z,22.33
2023-03-03T20:09:33.849Z,21.85
2023-03-03T20:12:16.097Z,22.60
2023-03-03T20:14:51.880Z,23.88
2023-03-03T20:17:29.495Z,22.10
2023-03-03T20:19:57.749Z,22.90
2023-03-03T20:22:31.572Z,23.90
2023-03-03T20:25:19.979Z,23.00
2023-03-03T20:27:55.346Z,24.40
2023-03-03T20:30:59.157Z,25.65
2023-03-03T20:33:44.124Z,25.65
2023-03-03T20:36:43.261Z,26.42
2023-03-03T20:39:33.330Z,26.02
2023-03-03T20:42:15.354Z,26.10
2023-03-03T20:44:58.612Z,26.83
2023-03-03T20:47:25.338Z,28.50
2023-03-03T20:50:22.653Z,27.17
2023-03-03T20:53:24.596Z,27.67
2023-03-03T20:56:16.848Z,28.45
2023-03-03T20:59:01.372Z,27.45
2023-03-03T21:01:36.611Z,27.88
2023-03-03T21:04:22.049Z,27.23
2023-03-03T21:09:32.661Z,28.23
2023-03-03T21:12:00.642Z,27.80
2023-03-03T21:14:36.898Z,26.73
2023-03-03T21:17:27.045Z,28.42
2023-03-03T21:19:53.799Z,27.50
2023-03-03T21:22:20.855Z,28.77
2023-03-03T21:24:55.498Z,27.73
2023-03-03T21:27:33.254Z,25.25
2023-03-03T21:30:14.056Z,26.90
2023-03-03T21:32:43.000Z,28.00
2023-03-03T21:35:14.668Z,26.25
2023-03-03T21:37:53.281Z,26.40
2023-03-03T21:40:25.788Z,25.90
2023-03-03T21:42:54.663Z,25.45
2023-03-03T21:45:21.872Z,26.98
2023-03-03T21:47:48.701Z,24.65
2023-03-03T21:50:16.443Z,26.48
2023-03-03T21:52:43.226Z,24.15
2023-03-03T21:55:10.486Z,25.48
2023-03-03T21:57:37.295Z,25.85
2023-03-03T22:00:05.651Z,24.50
2023-03-03T22:02:32.470Z,25.50
2023-03-03T22:04:59.737Z,25.20
2023-03-03T22:07:26.530Z,26.25
2023-03-03T22:09:53.612Z,28.13
2023-03-03T22:12:20.429Z,27.13
2023-03-03T22:14:47.571Z,26.70
2023-03-03T22:17:14.349Z,27.02
2023-03-03T22:19:41.471Z,29.45
2023-03-03T22:22:08.227Z,29.75
2023-03-03T22:24:35.284Z,28.90
2023-03-03T22:27:03.492Z,29.50
2023-03-03T22:29:30.603Z,30.38
2023-03-03T22:31:57.457Z,28.17
2023-03-03T22:34:24.750Z,30.52
2023-03-03T22:36:51.583Z,29.83
2023-03-03T22:39:18.681Z,30.58
2023-03-03T22:41:45.413Z,30.52
2023-03-03T22:44:12.497Z,29.75
2023-03-03T22:46:39.383Z,29.08
2023-03-03T22:49:06.528Z,31.60
2023-03-03T22:51:33.327Z,29.20
2023-03-03T22:54:00.423Z,29.30
2023-03-03T22:56:27.179Z,30.38
2023-03-03T22:58:54.230Z,29.35
2023-03-03T23:01:21.030Z,30.15
2023-03-03T23:03:48.076Z,31.60
2023-03-03T23:06:14.866Z,30.90
2023-03-03T23:08:41.947Z,33.00
2023-03-03T23:11:08.720Z,35.75
2023-03-03T23:13:35.820Z,34.42
2023-03-03T23:16:03.081Z,33.15
2023-03-03T23:18:30.232Z,33.88
2023-03-03T23:20:57.042Z,33.25
2023-03-03T23:23:24.252Z,34.80
2023-03-03T23:25:51.065Z,33.38
2023-03-03T23:28:19.301Z,32.95
2023-03-03T23:30:46.242Z,35.75
2023-03-03T23:33:13.408Z,34.22
2023-03-03T23:35:40.441Z,32.97
2023-03-03T23:38:07.559Z,33.10
2023-03-03T23:40:34.342Z,33.80
2023-03-03T23:43:01.405Z,32.05
2023-03-03T23:45:28.182Z,33.70
2023-03-03T23:47:55.195Z,32.00
2023-03-03T23:50:21.947Z,32.50
2023-03-03T23:52:49.126Z,32.10
2023-03-03T23:55:16.162Z,34.13
2023-03-03T23:57:43.244Z,31.90
